Flight Track Log - Related Links

Times and Time Zones

All times are in EDT time to prevent confusion due to time zone crossing. See the N45NF flight status page for this flight to view local times or setup timezone preferences in your user account.

Time Position Orientation Groundspeed Altitude Reporting Facility
EDT Latitude Longitude Course Direction KTS MPH feet Rate Location/Type
Sun 01:37:38 PM 34.1122 -96.9969 73° East 402 463 7,300  Level Fort Worth Center
Sun 01:38:38 PM 34.1431 -96.9242 63° Northeast 329 379 9,900 2,050 Climbing Fort Worth Center
Sun 01:39:38 PM 34.1572 -96.8236 80° East 281 323 11,400 1,750 Climbing Fort Worth Center
Sun 01:40:38 PM 34.1694 -96.7181 82° East 297 342 13,400 1,967 Climbing Fort Worth Center
Sun 01:42:00 PM 34.2226 -96.3970 82° East  Level FlightAware Approximate
Sun 01:42:38 PM 34.1972 -96.4919 81° East 333 383 17,300  Level Fort Worth Center
Sun 01:43:00 PM 34.2391 -96.2772 73° East  Level FlightAware Approximate
Sun 01:43:38 PM 34.2108 -96.3764 82° East 338 389 19,100  Level Fort Worth Center
Sun 01:44:38 PM 34.2244 -96.2581 82° East 343 395 20,900 1,800 Climbing Fort Worth Center
Sun 01:45:38 PM 34.2378 -96.1447 82° East 348 400 22,700 1,700 Climbing Fort Worth Center
Sun 01:46:38 PM 34.2514 -96.0267 82° East 348 400 24,300 1,600 Climbing Fort Worth Center
Sun 01:47:38 PM 34.2644 -95.9133 82° East 348 400 25,900 1,450 Climbing Fort Worth Center
Sun 01:48:38 PM 34.2797 -95.7950 81° East 348 400 27,200 1,250 Climbing Fort Worth Center
Sun 01:49:38 PM 34.2950 -95.6739 81° East 353 406 28,400 1,200 Climbing Fort Worth Center
Sun 01:50:38 PM 34.3117 -95.5378 82° East 363 418 29,600 1,100 Climbing Fort Worth Center
Sun 01:51:38 PM 34.3244 -95.4169 83° East 369 425 30,600 700 Climbing Fort Worth Center
Sun 01:52:38 PM 34.3369 -95.2883 83° East 369 425 31,000 700 Climbing Fort Worth Center
Sun 01:53:38 PM 34.3575 -95.1519 80° East 383 441 32,000 1,200 Climbing Fort Worth Center
Sun 01:54:38 PM 34.3697 -95.0183 84° East 395 455 33,400 1,250 Climbing Fort Worth Center
Sun 01:55:38 PM 34.3858 -94.8869 82° East 395 455 34,500 963 Climbing Fort Worth Center
Sun 01:57:20 PM 34.4069 -94.6769 83° East 386 444 36,000 556 Climbing Memphis Center
Sun 01:58:20 PM 34.4197 -94.5417 83° East 397 457 36,000  Level Memphis Center
Sun 01:59:20 PM 34.4350 -94.3939 83° East 420 483 36,000  Level Memphis Center
Sun 02:00:20 PM 34.4528 -94.2358 82° East 426 490 36,000  Level Memphis Center
Sun 02:01:20 PM 34.4697 -94.0906 82° East 431 496 36,000 400 Level Memphis Center
Sun 02:02:20 PM 34.4778 -93.9550 86° East 436 502 36,800 1,000 Climbing Memphis Center
Sun 02:03:20 PM 34.4922 -93.8144 83° East 436 502 38,000 1,200 Climbing Memphis Center
Sun 02:04:20 PM 34.5042 -93.6764 84° East 424 488 39,200 1,150 Climbing Memphis Center
Sun 02:05:20 PM 34.5203 -93.5458 81° East 410 472 40,300 900 Climbing Memphis Center
Sun 02:06:20 PM 34.5300 -93.4075 85° East 402 463 41,000 350 Climbing Memphis Center
Sun 02:07:20 PM 34.5436 -93.2744 83° East 397 457 41,000  Level Memphis Center
Sun 02:08:20 PM 34.5594 -93.1286 82° East 408 470 41,000  Level Memphis Center
Sun 02:09:20 PM 34.5733 -92.9678 84° East 428 493 41,000  Level Memphis Center
Sun 02:10:20 PM 34.5867 -92.8294 83° East 428 493 41,000  Level Memphis Center
Sun 02:11:20 PM 34.5997 -92.6858 84° East 423 487 41,000  Level Memphis Center
Sun 02:12:20 PM 34.6106 -92.5475 85° East 418 481 41,000  Level Memphis Center
Sun 02:13:20 PM 34.6067 -92.4036 92° East 418 481 41,000  Level Memphis Center
Sun 02:14:20 PM 34.5714 -92.2717 108° East 413 475 41,000  Level Memphis Center
Sun 02:15:20 PM 34.5358 -92.1372 108° East 413 475 41,000  Level Memphis Center
Sun 02:16:20 PM 34.5042 -92.0028 106° East 413 475 41,000  Level Memphis Center
Sun 02:17:21 PM 34.4661 -91.8711 109° East 413 475 41,000  Level Memphis Center
Sun 02:18:20 PM 34.4322 -91.7344 107° East 413 475 41,000  Level Memphis Center
Sun 02:19:20 PM 34.3939 -91.6031 109° East 413 475 41,000  Level Memphis Center
Sun 02:20:20 PM 34.3619 -91.4717 106° East 413 475 41,000  Level Memphis Center
Sun 02:21:20 PM 34.3317 -91.3531 107° East 413 475 41,000  Level Memphis Center
Sun 02:22:20 PM 34.2950 -91.2169 108° East 413 475 41,000  Level Memphis Center
Sun 02:23:20 PM 34.2644 -91.0861 106° East 413 475 41,000  Level Memphis Center
Sun 02:24:21 PM 34.2297 -90.9500 107° East 413 475 41,000  Level Memphis Center
Sun 02:25:20 PM 34.1989 -90.8217 106° East 413 475 41,000  Level Memphis Center
Sun 02:26:20 PM 34.1639 -90.6886 108° East 408 470 41,000  Level Memphis Center
Sun 02:27:20 PM 34.1308 -90.5581 107° East 408 470 41,000  Level Memphis Center
Sun 02:28:20 PM 34.0956 -90.4225 107° East 408 470 41,000  Level Memphis Center
Sun 02:29:20 PM 34.0578 -90.2794 108° East 403 464 41,000  Level Memphis Center
Sun 02:30:20 PM 34.0264 -90.1442 106° East 408 470 41,000  Level Memphis Center
Sun 02:31:21 PM 34.0011 -90.0089 103° East 413 475 41,000  Level Memphis Center
Sun 02:32:20 PM 33.9778 -89.8736 102° East 413 475 41,000  Level Memphis Center
Sun 02:33:20 PM 33.9561 -89.7361 101° East 413 475 41,000  Level Memphis Center
Sun 02:34:20 PM 33.9367 -89.5986 100° East 413 475 41,000  Level Memphis Center
Sun 02:35:20 PM 33.9169 -89.4611 100° East 419 482 41,000  Level Memphis Center
Sun 02:36:20 PM 33.8992 -89.3236 99° East 414 476 41,000  Level Memphis Center
Sun 02:37:20 PM 33.8811 -89.1861 99° East 414 476 41,000  Level Memphis Center
Sun 02:38:21 PM 33.8653 -89.0464 98° East 414 476 41,000  Level Memphis Center
Sun 02:39:20 PM 33.8469 -88.9092 99° East 414 476 41,000  Level Memphis Center
Sun 02:40:20 PM 33.8331 -88.7917 98° East 408 470 41,000  Level Memphis Center
Sun 02:41:20 PM 33.8144 -88.6494 99° East 408 470 41,000  Level Memphis Center
Sun 02:42:20 PM 33.8167 -88.5169 89° East 408 470 41,000  Level Memphis Center
Sun 02:43:20 PM 33.8542 -88.3786 72° East 408 470 41,000  Level Memphis Center
Sun 02:44:20 PM 33.8875 -88.2453 73° East 413 475 41,000  Level Memphis Center
Sun 02:45:21 PM 33.9247 -88.1067 72° East 429 494 41,000  Level Memphis Center
Sun 02:46:20 PM 33.9575 -87.9656 74° East 429 494 41,000 -454 Level Memphis Center
Sun 02:47:20 PM 33.9906 -87.8319 73° East 421 484 40,100 -637 Descending Memphis Center
Sun 02:49:19 PM 34.0611 -87.5642 72° East 416 479 39,100 -570 Descending Atlanta Center
Sun 02:50:19 PM 34.1108 -87.4283 66° East 430 495 38,400 -1,300 Descending Atlanta Center
Sun 02:52:19 PM 34.2206 -87.1389 65° Northeast 448 516 35,200 -1,133 Descending Atlanta Center
Sun 02:53:19 PM 34.2617 -86.9969 71° East 453 521 35,000 -100 Descending Atlanta Center
Sun 02:54:19 PM 34.2694 -86.8489 86° East 436 502 35,000 -100 Level Atlanta Center
Sun 02:55:19 PM 34.2789 -86.7011 86° East 436 502 34,800 -500 Descending Atlanta Center
Sun 02:56:19 PM 34.2903 -86.5531 85° East 441 507 34,000 -900 Descending Atlanta Center
Sun 02:57:19 PM 34.3058 -86.4128 82° East 441 507 33,000 -1,050 Descending Atlanta Center
Sun 02:58:19 PM 34.3106 -86.2669 88° East 428 493 31,900 -1,400 Descending Atlanta Center
Sun 02:59:19 PM 34.2961 -86.1333 97° East 410 472 30,200 -1,150 Descending Atlanta Center
Sun 03:00:19 PM 34.3044 -86.0103 85° East 388 447 29,600 -1,050 Descending Atlanta Center
Sun 03:01:19 PM 34.4092 -85.9850 11° North 299 344 28,100 -800 Descending Atlanta Center
Sun 03:02:19 PM 34.5156 -85.9875 359° North 323 372 28,000 -50 Descending Atlanta Center
Sun 03:03:19 PM 34.6200 -85.9900 359° North 341 392 28,000 -700 Level Atlanta Center
Sun 03:04:19 PM 34.6964 -85.9058 42° Northeast 347 399 26,600 -1,650 Descending Atlanta Center
Sun 03:05:19 PM 34.7625 -85.7961 54° Northeast 361 415 24,700 -2,000 Descending Atlanta Center
Sun 03:06:19 PM 34.7811 -85.6572 81° East 370 426 22,600 -2,500 Descending Atlanta Center
Sun 03:07:19 PM 34.7933 -85.5311 83° East 370 426 19,700 -3,250 Descending Atlanta Center
Sun 03:08:19 PM 34.8342 -85.4153 67° East 370 426 16,100 -3,600 Descending Atlanta Center
Sun 03:09:19 PM 34.9019 -85.3253 47° Northeast 358 412 12,500 -3,100 Descending Atlanta Center
Sun 03:10:19 PM 34.9614 -85.2400 50° Northeast 345 397 9,900 -2,550 Descending Atlanta Center
Sun 03:11:19 PM 35.0308 -85.1828 34° Northeast 312 359 7,400 -2,650 Descending Atlanta Center
Sun 03:12:19 PM 35.0958 -85.1253 36° Northeast 300 345 4,600 -2,200 Descending Atlanta Center
Sun 03:13:19 PM 35.1589 -85.0778 32° Northeast 289 333 3,000 -800 Descending Atlanta Center
Sun 03:14:19 PM 35.2067 -85.0989 340° North 189 217 3,000  Level Atlanta Center
Sun 03:15:19 PM 35.1853 -85.1569 246° West 99 114 3,000 -300 Level Atlanta Center
Sun 03:16:19 PM 35.1267 -85.1714 191° South 138 159 2,400 -650 Descending Atlanta Center
Sun 03:17:19 PM 35.0808 -85.1886 197° South 156 180 1,700 -700 Descending Atlanta Center
Sun 03:18:19 PM 35.0494 -85.2008 198° South 161 185 1,000 -700 Descending Atlanta Center
Sun 03:20:00 PM 35.0333 -85.2000 210° Southwest  Level FlightAware Approximate

Login

Don't have an account? Register now (free) for customized features, flight alerts, and more!